sensor_id;sensor_type;location;lat;lon;timestamp;P1;durP1;ratioP1;P2;durP2;ratioP2
69835;SDS011;57132;51.972;4.450;2023-05-08T00:00:56;35.97;;;25.92;;
69835;SDS011;57132;51.972;4.450;2023-05-08T00:03:23;30.33;;;23.25;;
69835;SDS011;57132;51.972;4.450;2023-05-08T00:05:48;85.75;;;31.90;;
69835;SDS011;57132;51.972;4.450;2023-05-08T00:08:13;34.63;;;25.65;;
69835;SDS011;57132;51.972;4.450;2023-05-08T00:10:39;65.25;;;28.02;;
69835;SDS011;57132;51.972;4.450;2023-05-08T00:13:04;55.70;;;31.25;;
69835;SDS011;57132;51.972;4.450;2023-05-08T00:15:29;44.00;;;31.30;;
69835;SDS011;57132;51.972;4.450;2023-05-08T00:17:55;43.70;;;31.65;;
69835;SDS011;57132;51.972;4.450;2023-05-08T00:20:20;68.90;;;39.90;;
69835;SDS011;57132;51.972;4.450;2023-05-08T00:22:45;58.92;;;37.70;;
69835;SDS011;57132;51.972;4.450;2023-05-08T00:25:11;58.97;;;36.60;;
69835;SDS011;57132;51.972;4.450;2023-05-08T00:27:36;73.25;;;41.78;;
69835;SDS011;57132;51.972;4.450;2023-05-08T00:30:01;70.32;;;39.92;;
69835;SDS011;57132;51.972;4.450;2023-05-08T00:32:27;78.47;;;42.05;;
69835;SDS011;57132;51.972;4.450;2023-05-08T00:34:52;80.15;;;43.78;;
69835;SDS011;57132;51.972;4.450;2023-05-08T00:37:18;75.82;;;42.88;;
69835;SDS011;57132;51.972;4.450;2023-05-08T00:39:43;65.60;;;37.22;;
69835;SDS011;57132;51.972;4.450;2023-05-08T00:42:08;69.47;;;41.03;;
69835;SDS011;57132;51.972;4.450;2023-05-08T00:44:34;74.30;;;45.75;;
69835;SDS011;57132;51.972;4.450;2023-05-08T00:46:59;65.03;;;40.72;;
69835;SDS011;57132;51.972;4.450;2023-05-08T00:49:25;61.17;;;38.33;;
69835;SDS011;57132;51.972;4.450;2023-05-08T00:51:52;61.70;;;40.10;;
69835;SDS011;57132;51.972;4.450;2023-05-08T00:54:19;58.97;;;38.75;;
69835;SDS011;57132;51.972;4.450;2023-05-08T00:56:46;64.93;;;41.33;;
69835;SDS011;57132;51.972;4.450;2023-05-08T00:59:13;63.90;;;41.10;;
69835;SDS011;57132;51.972;4.450;2023-05-08T01:01:40;68.85;;;41.75;;
69835;SDS011;57132;51.972;4.450;2023-05-08T01:04:07;69.80;;;43.05;;
69835;SDS011;57132;51.972;4.450;2023-05-08T01:06:33;72.10;;;41.95;;
69835;SDS011;57132;51.972;4.450;2023-05-08T01:08:59;73.07;;;38.97;;
69835;SDS011;57132;51.972;4.450;2023-05-08T01:14:28;56.90;;;37.40;;
69835;SDS011;57132;51.972;4.450;2023-05-08T01:17:22;49.33;;;34.65;;
69835;SDS011;57132;51.972;4.450;2023-05-08T01:28:20;93.80;;;46.65;;
69835;SDS011;57132;51.972;4.450;2023-05-08T01:36:23;101.13;;;50.50;;
69835;SDS011;57132;51.972;4.450;2023-05-08T01:42:01;82.40;;;47.20;;
69835;SDS011;57132;51.972;4.450;2023-05-08T01:44:33;100.32;;;56.25;;
69835;SDS011;57132;51.972;4.450;2023-05-08T01:47:05;98.82;;;54.42;;
69835;SDS011;57132;51.972;4.450;2023-05-08T01:49:36;105.25;;;55.53;;
69835;SDS011;57132;51.972;4.450;2023-05-08T01:52:12;85.00;;;48.25;;
69835;SDS011;57132;51.972;4.450;2023-05-08T01:54:56;216.05;;;47.40;;
69835;SDS011;57132;51.972;4.450;2023-05-08T01:57:27;135.23;;;44.28;;
69835;SDS011;57132;51.972;4.450;2023-05-08T01:59:55;75.15;;;42.80;;
69835;SDS011;57132;51.972;4.450;2023-05-08T02:02:23;74.18;;;43.08;;
69835;SDS011;57132;51.972;4.450;2023-05-08T02:04:50;65.18;;;41.13;;
69835;SDS011;57132;51.972;4.450;2023-05-08T02:07:19;74.75;;;44.22;;
69835;SDS011;57132;51.972;4.450;2023-05-08T02:09:47;88.25;;;48.45;;
69835;SDS011;57132;51.972;4.450;2023-05-08T02:12:12;87.63;;;51.97;;
69835;SDS011;57132;51.972;4.450;2023-05-08T02:14:41;111.50;;;54.10;;
69835;SDS011;57132;51.972;4.450;2023-05-08T02:17:09;87.63;;;52.65;;
69835;SDS011;57132;51.972;4.450;2023-05-08T02:19:36;88.55;;;51.25;;
69835;SDS011;57132;51.972;4.450;2023-05-08T02:22:04;103.47;;;55.22;;
69835;SDS011;57132;51.972;4.450;2023-05-08T02:24:31;87.35;;;52.92;;
69835;SDS011;57132;51.972;4.450;2023-05-08T02:26:58;70.32;;;43.95;;
69835;SDS011;57132;51.972;4.450;2023-05-08T02:29:24;82.78;;;39.05;;
69835;SDS011;57132;51.972;4.450;2023-05-08T02:31:50;75.05;;;36.88;;
69835;SDS011;57132;51.972;4.450;2023-05-08T02:34:18;53.28;;;35.70;;
69835;SDS011;57132;51.972;4.450;2023-05-08T02:36:45;52.38;;;34.90;;
69835;SDS011;57132;51.972;4.450;2023-05-08T02:39:12;58.20;;;38.05;;
69835;SDS011;57132;51.972;4.450;2023-05-08T02:41:39;62.53;;;37.13;;
69835;SDS011;57132;51.972;4.450;2023-05-08T02:44:05;93.50;;;39.88;;
69835;SDS011;57132;51.972;4.450;2023-05-08T02:46:52;60.25;;;39.40;;
69835;SDS011;57132;51.972;4.450;2023-05-08T02:49:26;56.58;;;36.40;;
69835;SDS011;57132;51.972;4.450;2023-05-08T02:52:04;59.35;;;37.90;;
69835;SDS011;57132;51.972;4.450;2023-05-08T02:55:02;62.13;;;39.42;;
69835;SDS011;57132;51.972;4.450;2023-05-08T03:00:22;75.60;;;44.92;;
69835;SDS011;57132;51.972;4.450;2023-05-08T03:02:56;76.13;;;44.95;;
69835;SDS011;57132;51.972;4.450;2023-05-08T03:05:28;67.60;;;42.83;;
69835;SDS011;57132;51.972;4.450;2023-05-08T03:07:56;63.35;;;41.53;;
69835;SDS011;57132;51.972;4.450;2023-05-08T03:10:27;63.20;;;40.42;;
69835;SDS011;57132;51.972;4.450;2023-05-08T03:12:55;64.40;;;41.40;;
69835;SDS011;57132;51.972;4.450;2023-05-08T03:15:26;69.38;;;43.05;;
69835;SDS011;57132;51.972;4.450;2023-05-08T03:17:59;67.50;;;41.92;;
69835;SDS011;57132;51.972;4.450;2023-05-08T03:20:30;65.32;;;42.00;;
69835;SDS011;57132;51.972;4.450;2023-05-08T03:23:00;83.45;;;42.92;;
69835;SDS011;57132;51.972;4.450;2023-05-08T03:25:28;65.82;;;39.88;;
69835;SDS011;57132;51.972;4.450;2023-05-08T03:27:56;63.70;;;40.00;;
69835;SDS011;57132;51.972;4.450;2023-05-08T03:30:24;63.95;;;41.65;;
69835;SDS011;57132;51.972;4.450;2023-05-08T03:32:51;65.00;;;40.53;;
69835;SDS011;57132;51.972;4.450;2023-05-08T03:35:18;65.28;;;41.08;;
69835;SDS011;57132;51.972;4.450;2023-05-08T03:37:44;113.60;;;42.72;;
69835;SDS011;57132;51.972;4.450;2023-05-08T03:40:10;133.70;;;43.88;;
69835;SDS011;57132;51.972;4.450;2023-05-08T03:42:35;117.53;;;44.70;;
69835;SDS011;57132;51.972;4.450;2023-05-08T03:45:02;73.72;;;43.15;;
69835;SDS011;57132;51.972;4.450;2023-05-08T03:47:28;86.43;;;43.50;;
69835;SDS011;57132;51.972;4.450;2023-05-08T03:49:54;79.07;;;43.28;;
69835;SDS011;57132;51.972;4.450;2023-05-08T03:52:21;82.45;;;44.78;;
69835;SDS011;57132;51.972;4.450;2023-05-08T03:54:47;99.70;;;49.15;;
69835;SDS011;57132;51.972;4.450;2023-05-08T03:57:12;100.80;;;49.88;;
69835;SDS011;57132;51.972;4.450;2023-05-08T03:59:41;118.70;;;52.53;;
69835;SDS011;57132;51.972;4.450;2023-05-08T04:05:20;123.30;;;50.78;;
69835;SDS011;57132;51.972;4.450;2023-05-08T04:07:58;150.57;;;52.30;;
69835;SDS011;57132;51.972;4.450;2023-05-08T04:10:36;151.13;;;53.83;;
69835;SDS011;57132;51.972;4.450;2023-05-08T04:13:14;155.23;;;52.30;;
69835;SDS011;57132;51.972;4.450;2023-05-08T04:15:50;163.85;;;53.70;;
69835;SDS011;57132;51.972;4.450;2023-05-08T04:18:17;206.70;;;58.00;;
69835;SDS011;57132;51.972;4.450;2023-05-08T04:20:47;188.88;;;57.70;;
69835;SDS011;57132;51.972;4.450;2023-05-08T04:23:16;193.13;;;55.63;;
69835;SDS011;57132;51.972;4.450;2023-05-08T04:25:44;180.57;;;58.53;;
69835;SDS011;57132;51.972;4.450;2023-05-08T04:28:12;128.55;;;52.65;;
69835;SDS011;57132;51.972;4.450;2023-05-08T04:30:38;128.45;;;51.50;;
69835;SDS011;57132;51.972;4.450;2023-05-08T04:33:04;124.35;;;51.35;;
69835;SDS011;57132;51.972;4.450;2023-05-08T04:35:32;133.30;;;54.42;;
69835;SDS011;57132;51.972;4.450;2023-05-08T04:37:58;238.85;;;57.42;;
69835;SDS011;57132;51.972;4.450;2023-05-08T04:40:24;264.73;;;57.05;;
69835;SDS011;57132;51.972;4.450;2023-05-08T04:42:49;187.13;;;55.10;;
69835;SDS011;57132;51.972;4.450;2023-05-08T04:45:15;152.32;;;51.53;;
69835;SDS011;57132;51.972;4.450;2023-05-08T04:47:40;152.25;;;50.63;;
69835;SDS011;57132;51.972;4.450;2023-05-08T04:50:06;153.80;;;50.55;;
69835;SDS011;57132;51.972;4.450;2023-05-08T04:52:31;129.95;;;49.58;;
69835;SDS011;57132;51.972;4.450;2023-05-08T04:54:57;124.95;;;50.10;;
69835;SDS011;57132;51.972;4.450;2023-05-08T04:57:22;145.23;;;50.30;;
69835;SDS011;57132;51.972;4.450;2023-05-08T04:59:48;142.40;;;48.85;;
69835;SDS011;57132;51.972;4.450;2023-05-08T05:02:13;196.73;;;54.38;;
69835;SDS011;57132;51.972;4.450;2023-05-08T05:04:39;155.48;;;53.03;;
69835;SDS011;57132;51.972;4.450;2023-05-08T05:07:04;216.27;;;54.38;;
69835;SDS011;57132;51.972;4.450;2023-05-08T05:09:30;138.60;;;53.75;;
69835;SDS011;57132;51.972;4.450;2023-05-08T05:11:55;142.55;;;53.35;;
69835;SDS011;57132;51.972;4.450;2023-05-08T05:14:20;138.02;;;53.00;;
69835;SDS011;57132;51.972;4.450;2023-05-08T05:16:46;183.00;;;54.95;;
69835;SDS011;57132;51.972;4.450;2023-05-08T05:19:12;164.15;;;53.33;;
69835;SDS011;57132;51.972;4.450;2023-05-08T05:21:38;151.45;;;52.78;;
69835;SDS011;57132;51.972;4.450;2023-05-08T05:24:03;156.63;;;53.03;;
69835;SDS011;57132;51.972;4.450;2023-05-08T05:26:30;152.32;;;52.35;;
69835;SDS011;57132;51.972;4.450;2023-05-08T05:28:55;158.63;;;50.40;;
69835;SDS011;57132;51.972;4.450;2023-05-08T05:31:21;156.55;;;50.00;;
69835;SDS011;57132;51.972;4.450;2023-05-08T05:33:46;178.65;;;50.80;;
69835;SDS011;57132;51.972;4.450;2023-05-08T05:36:12;173.82;;;47.97;;
69835;SDS011;57132;51.972;4.450;2023-05-08T05:38:37;186.35;;;47.50;;
69835;SDS011;57132;51.972;4.450;2023-05-08T05:41:02;161.48;;;47.88;;
69835;SDS011;57132;51.972;4.450;2023-05-08T05:43:28;164.88;;;44.10;;
69835;SDS011;57132;51.972;4.450;2023-05-08T05:45:53;174.55;;;44.25;;
69835;SDS011;57132;51.972;4.450;2023-05-08T05:48:20;171.73;;;41.85;;
69835;SDS011;57132;51.972;4.450;2023-05-08T05:50:45;164.40;;;37.55;;
69835;SDS011;57132;51.972;4.450;2023-05-08T05:53:10;168.73;;;34.15;;
69835;SDS011;57132;51.972;4.450;2023-05-08T05:55:36;160.77;;;30.95;;
69835;SDS011;57132;51.972;4.450;2023-05-08T05:58:02;173.30;;;31.55;;
69835;SDS011;57132;51.972;4.450;2023-05-08T06:00:27;161.30;;;31.73;;
69835;SDS011;57132;51.972;4.450;2023-05-08T06:02:54;165.48;;;34.25;;
69835;SDS011;57132;51.972;4.450;2023-05-08T06:05:20;171.18;;;34.67;;
69835;SDS011;57132;51.972;4.450;2023-05-08T06:07:45;157.27;;;29.00;;
69835;SDS011;57132;51.972;4.450;2023-05-08T06:10:10;149.77;;;34.33;;
69835;SDS011;57132;51.972;4.450;2023-05-08T06:12:36;158.57;;;35.53;;
69835;SDS011;57132;51.972;4.450;2023-05-08T06:15:01;152.68;;;33.50;;
69835;SDS011;57132;51.972;4.450;2023-05-08T06:17:27;151.27;;;31.73;;
69835;SDS011;57132;51.972;4.450;2023-05-08T06:19:52;160.93;;;34.95;;
69835;SDS011;57132;51.972;4.450;2023-05-08T06:22:19;168.57;;;35.47;;
69835;SDS011;57132;51.972;4.450;2023-05-08T06:24:50;155.25;;;34.97;;
69835;SDS011;57132;51.972;4.450;2023-05-08T06:27:17;139.90;;;32.58;;
69835;SDS011;57132;51.972;4.450;2023-05-08T06:29:44;133.90;;;33.10;;
69835;SDS011;57132;51.972;4.450;2023-05-08T06:32:09;143.93;;;34.75;;
69835;SDS011;57132;51.972;4.450;2023-05-08T06:34:35;132.70;;;30.17;;
69835;SDS011;57132;51.972;4.450;2023-05-08T06:37:00;135.75;;;34.05;;
69835;SDS011;57132;51.972;4.450;2023-05-08T06:39:25;136.25;;;32.63;;
69835;SDS011;57132;51.972;4.450;2023-05-08T06:41:50;138.85;;;33.55;;
69835;SDS011;57132;51.972;4.450;2023-05-08T06:44:16;115.28;;;30.20;;
69835;SDS011;57132;51.972;4.450;2023-05-08T06:46:41;118.50;;;31.70;;
69835;SDS011;57132;51.972;4.450;2023-05-08T06:49:06;124.78;;;31.67;;
69835;SDS011;57132;51.972;4.450;2023-05-08T06:51:32;124.70;;;31.17;;
69835;SDS011;57132;51.972;4.450;2023-05-08T06:53:59;123.18;;;33.15;;
69835;SDS011;57132;51.972;4.450;2023-05-08T06:56:25;111.35;;;30.27;;
69835;SDS011;57132;51.972;4.450;2023-05-08T06:58:50;120.68;;;33.20;;
69835;SDS011;57132;51.972;4.450;2023-05-08T07:01:15;117.22;;;31.75;;
69835;SDS011;57132;51.972;4.450;2023-05-08T07:03:41;123.97;;;32.28;;
69835;SDS011;57132;51.972;4.450;2023-05-08T07:06:07;120.15;;;34.72;;
69835;SDS011;57132;51.972;4.450;2023-05-08T07:08:35;119.63;;;35.22;;
69835;SDS011;57132;51.972;4.450;2023-05-08T07:11:01;115.70;;;36.00;;
69835;SDS011;57132;51.972;4.450;2023-05-08T07:13:26;107.82;;;32.08;;
69835;SDS011;57132;51.972;4.450;2023-05-08T07:15:52;109.20;;;34.40;;
69835;SDS011;57132;51.972;4.450;2023-05-08T07:18:18;106.05;;;34.05;;
69835;SDS011;57132;51.972;4.450;2023-05-08T07:20:43;108.38;;;32.83;;
69835;SDS011;57132;51.972;4.450;2023-05-08T07:23:08;104.10;;;31.98;;
69835;SDS011;57132;51.972;4.450;2023-05-08T07:25:34;92.35;;;30.10;;
69835;SDS011;57132;51.972;4.450;2023-05-08T07:27:59;103.22;;;33.05;;
69835;SDS011;57132;51.972;4.450;2023-05-08T07:30:24;95.82;;;32.15;;
69835;SDS011;57132;51.972;4.450;2023-05-08T07:32:50;93.05;;;31.70;;
69835;SDS011;57132;51.972;4.450;2023-05-08T07:35:15;102.00;;;33.80;;
69835;SDS011;57132;51.972;4.450;2023-05-08T07:37:42;88.70;;;30.45;;
69835;SDS011;57132;51.972;4.450;2023-05-08T07:40:07;94.18;;;31.42;;
69835;SDS011;57132;51.972;4.450;2023-05-08T07:42:39;75.72;;;29.55;;
69835;SDS011;57132;51.972;4.450;2023-05-08T07:45:06;79.23;;;29.60;;
69835;SDS011;57132;51.972;4.450;2023-05-08T07:47:33;77.25;;;29.73;;
69835;SDS011;57132;51.972;4.450;2023-05-08T07:49:58;77.97;;;30.02;;
69835;SDS011;57132;51.972;4.450;2023-05-08T07:52:23;71.88;;;28.17;;
69835;SDS011;57132;51.972;4.450;2023-05-08T07:54:49;66.38;;;28.45;;
69835;SDS011;57132;51.972;4.450;2023-05-08T07:57:14;67.60;;;30.83;;
69835;SDS011;57132;51.972;4.450;2023-05-08T07:59:39;67.53;;;27.42;;
69835;SDS011;57132;51.972;4.450;2023-05-08T08:02:05;68.78;;;29.23;;
69835;SDS011;57132;51.972;4.450;2023-05-08T08:04:31;69.80;;;32.15;;
69835;SDS011;57132;51.972;4.450;2023-05-08T08:06:56;85.40;;;38.50;;
69835;SDS011;57132;51.972;4.450;2023-05-08T08:09:22;86.15;;;41.40;;
69835;SDS011;57132;51.972;4.450;2023-05-08T08:11:47;91.82;;;41.83;;
69835;SDS011;57132;51.972;4.450;2023-05-08T08:14:12;81.70;;;38.85;;
69835;SDS011;57132;51.972;4.450;2023-05-08T08:16:38;78.47;;;37.25;;
69835;SDS011;57132;51.972;4.450;2023-05-08T08:19:03;82.13;;;37.17;;
69835;SDS011;57132;51.972;4.450;2023-05-08T08:21:28;81.15;;;36.42;;
69835;SDS011;57132;51.972;4.450;2023-05-08T08:23:55;73.07;;;31.35;;
69835;SDS011;57132;51.972;4.450;2023-05-08T08:26:21;65.65;;;30.13;;
69835;SDS011;57132;51.972;4.450;2023-05-08T08:28:46;63.50;;;30.00;;
69835;SDS011;57132;51.972;4.450;2023-05-08T08:31:11;61.33;;;28.25;;
69835;SDS011;57132;51.972;4.450;2023-05-08T08:33:37;60.47;;;30.20;;
69835;SDS011;57132;51.972;4.450;2023-05-08T08:36:02;63.97;;;31.63;;
69835;SDS011;57132;51.972;4.450;2023-05-08T08:38:28;58.83;;;29.50;;
69835;SDS011;57132;51.972;4.450;2023-05-08T08:40:53;69.72;;;32.83;;
69835;SDS011;57132;51.972;4.450;2023-05-08T08:43:18;67.28;;;32.63;;
69835;SDS011;57132;51.972;4.450;2023-05-08T08:45:44;68.78;;;32.92;;
69835;SDS011;57132;51.972;4.450;2023-05-08T08:48:10;68.55;;;31.90;;
69835;SDS011;57132;51.972;4.450;2023-05-08T08:50:36;61.67;;;31.33;;
69835;SDS011;57132;51.972;4.450;2023-05-08T08:53:09;61.67;;;31.15;;
69835;SDS011;57132;51.972;4.450;2023-05-08T08:55:43;71.93;;;35.88;;
69835;SDS011;57132;51.972;4.450;2023-05-08T09:00:44;68.93;;;31.33;;
69835;SDS011;57132;51.972;4.450;2023-05-08T09:03:11;66.28;;;30.08;;
69835;SDS011;57132;51.972;4.450;2023-05-08T09:05:39;60.08;;;28.55;;
69835;SDS011;57132;51.972;4.450;2023-05-08T09:08:05;66.20;;;32.35;;
69835;SDS011;57132;51.972;4.450;2023-05-08T09:10:31;66.25;;;31.02;;
69835;SDS011;57132;51.972;4.450;2023-05-08T09:12:58;63.83;;;31.98;;
69835;SDS011;57132;51.972;4.450;2023-05-08T09:15:23;74.55;;;36.05;;
69835;SDS011;57132;51.972;4.450;2023-05-08T09:17:49;74.10;;;34.30;;
69835;SDS011;57132;51.972;4.450;2023-05-08T09:20:15;73.45;;;32.72;;
69835;SDS011;57132;51.972;4.450;2023-05-08T09:22:41;64.15;;;30.95;;
69835;SDS011;57132;51.972;4.450;2023-05-08T09:25:07;62.72;;;30.35;;
69835;SDS011;57132;51.972;4.450;2023-05-08T09:27:33;69.55;;;29.33;;
69835;SDS011;57132;51.972;4.450;2023-05-08T09:32:31;61.72;;;30.83;;
69835;SDS011;57132;51.972;4.450;2023-05-08T09:34:58;55.35;;;26.88;;
69835;SDS011;57132;51.972;4.450;2023-05-08T09:37:25;59.50;;;29.40;;
69835;SDS011;57132;51.972;4.450;2023-05-08T09:39:51;55.53;;;27.42;;
69835;SDS011;57132;51.972;4.450;2023-05-08T09:42:17;56.17;;;30.65;;
69835;SDS011;57132;51.972;4.450;2023-05-08T09:44:46;52.38;;;29.08;;
69835;SDS011;57132;51.972;4.450;2023-05-08T09:47:16;54.17;;;31.65;;
69835;SDS011;57132;51.972;4.450;2023-05-08T09:52:30;55.22;;;31.88;;
69835;SDS011;57132;51.972;4.450;2023-05-08T09:54:57;55.92;;;33.08;;
69835;SDS011;57132;51.972;4.450;2023-05-08T09:57:37;58.88;;;35.58;;
69835;SDS011;57132;51.972;4.450;2023-05-08T10:00:04;55.75;;;34.13;;
69835;SDS011;57132;51.972;4.450;2023-05-08T10:02:31;60.95;;;36.20;;
69835;SDS011;57132;51.972;4.450;2023-05-08T10:04:57;54.63;;;32.95;;
69835;SDS011;57132;51.972;4.450;2023-05-08T10:07:26;58.75;;;34.95;;
69835;SDS011;57132;51.972;4.450;2023-05-08T10:09:56;52.58;;;32.45;;
69835;SDS011;57132;51.972;4.450;2023-05-08T10:12:23;59.35;;;35.60;;
69835;SDS011;57132;51.972;4.450;2023-05-08T10:14:49;58.67;;;33.40;;
69835;SDS011;57132;51.972;4.450;2023-05-08T10:17:14;52.03;;;31.08;;
69835;SDS011;57132;51.972;4.450;2023-05-08T10:19:48;53.20;;;32.05;;
69835;SDS011;57132;51.972;4.450;2023-05-08T10:22:18;49.33;;;30.63;;
69835;SDS011;57132;51.972;4.450;2023-05-08T10:24:46;50.92;;;30.83;;
69835;SDS011;57132;51.972;4.450;2023-05-08T10:27:16;48.33;;;30.50;;
69835;SDS011;57132;51.972;4.450;2023-05-08T10:29:52;47.88;;;30.40;;
69835;SDS011;57132;51.972;4.450;2023-05-08T10:32:19;43.95;;;30.10;;
69835;SDS011;57132;51.972;4.450;2023-05-08T10:34:46;45.63;;;29.83;;
69835;SDS011;57132;51.972;4.450;2023-05-08T10:37:17;44.22;;;31.85;;
69835;SDS011;57132;51.972;4.450;2023-05-08T10:39:43;50.47;;;33.60;;
69835;SDS011;57132;51.972;4.450;2023-05-08T10:42:09;49.13;;;33.10;;
69835;SDS011;57132;51.972;4.450;2023-05-08T10:44:37;38.22;;;26.35;;
69835;SDS011;57132;51.972;4.450;2023-05-08T10:47:07;39.83;;;27.40;;
69835;SDS011;57132;51.972;4.450;2023-05-08T10:52:46;44.47;;;27.95;;
69835;SDS011;57132;51.972;4.450;2023-05-08T10:55:24;51.53;;;35.17;;
69835;SDS011;57132;51.972;4.450;2023-05-08T10:58:13;52.80;;;38.45;;
69835;SDS011;57132;51.972;4.450;2023-05-08T11:03:18;50.40;;;34.65;;
69835;SDS011;57132;51.972;4.450;2023-05-08T11:05:45;50.70;;;35.78;;
69835;SDS011;57132;51.972;4.450;2023-05-08T11:08:29;53.67;;;36.92;;
69835;SDS011;57132;51.972;4.450;2023-05-08T11:13:30;53.35;;;36.65;;
69835;SDS011;57132;51.972;4.450;2023-05-08T11:15:58;48.20;;;34.28;;
69835;SDS011;57132;51.972;4.450;2023-05-08T11:18:23;46.15;;;34.40;;
69835;SDS011;57132;51.972;4.450;2023-05-08T11:21:02;45.45;;;34.55;;
69835;SDS011;57132;51.972;4.450;2023-05-08T11:23:32;47.70;;;32.40;;
69835;SDS011;57132;51.972;4.450;2023-05-08T11:26:05;46.13;;;32.25;;
69835;SDS011;57132;51.972;4.450;2023-05-08T11:28:37;49.90;;;33.97;;
69835;SDS011;57132;51.972;4.450;2023-05-08T11:31:04;48.92;;;33.60;;
69835;SDS011;57132;51.972;4.450;2023-05-08T11:33:31;51.08;;;34.08;;
69835;SDS011;57132;51.972;4.450;2023-05-08T11:36:17;52.10;;;30.52;;
69835;SDS011;57132;51.972;4.450;2023-05-08T11:39:04;47.40;;;27.55;;
69835;SDS011;57132;51.972;4.450;2023-05-08T11:41:29;44.88;;;27.65;;
69835;SDS011;57132;51.972;4.450;2023-05-08T11:49:09;47.08;;;27.05;;
69835;SDS011;57132;51.972;4.450;2023-05-08T11:51:35;50.88;;;31.08;;
69835;SDS011;57132;51.972;4.450;2023-05-08T11:54:02;56.65;;;31.88;;
69835;SDS011;57132;51.972;4.450;2023-05-08T11:56:28;51.42;;;30.33;;
69835;SDS011;57132;51.972;4.450;2023-05-08T11:59:02;53.08;;;30.83;;
69835;SDS011;57132;51.972;4.450;2023-05-08T12:01:29;53.65;;;30.92;;
69835;SDS011;57132;51.972;4.450;2023-05-08T12:06:27;53.47;;;31.88;;
69835;SDS011;57132;51.972;4.450;2023-05-08T12:08:53;65.00;;;35.58;;
69835;SDS011;57132;51.972;4.450;2023-05-08T12:11:24;57.47;;;37.03;;
69835;SDS011;57132;51.972;4.450;2023-05-08T12:13:50;65.07;;;40.42;;
69835;SDS011;57132;51.972;4.450;2023-05-08T12:16:17;60.15;;;38.40;;
69835;SDS011;57132;51.972;4.450;2023-05-08T12:18:42;52.08;;;33.65;;
69835;SDS011;57132;51.972;4.450;2023-05-08T12:21:08;55.83;;;35.45;;
69835;SDS011;57132;51.972;4.450;2023-05-08T12:23:35;61.30;;;35.75;;
69835;SDS011;57132;51.972;4.450;2023-05-08T12:26:02;48.10;;;29.20;;
69835;SDS011;57132;51.972;4.450;2023-05-08T12:28:28;48.30;;;29.50;;
69835;SDS011;57132;51.972;4.450;2023-05-08T12:30:53;47.03;;;28.35;;
69835;SDS011;57132;51.972;4.450;2023-05-08T12:33:19;44.13;;;27.58;;
69835;SDS011;57132;51.972;4.450;2023-05-08T12:35:45;50.20;;;28.02;;
69835;SDS011;57132;51.972;4.450;2023-05-08T12:38:10;55.17;;;31.05;;
69835;SDS011;57132;51.972;4.450;2023-05-08T12:43:08;57.10;;;29.38;;
69835;SDS011;57132;51.972;4.450;2023-05-08T12:45:36;58.00;;;31.52;;
69835;SDS011;57132;51.972;4.450;2023-05-08T12:48:13;56.53;;;28.52;;
69835;SDS011;57132;51.972;4.450;2023-05-08T12:50:42;71.70;;;32.63;;
69835;SDS011;57132;51.972;4.450;2023-05-08T12:53:10;76.22;;;33.63;;
69835;SDS011;57132;51.972;4.450;2023-05-08T12:55:52;76.78;;;33.95;;
69835;SDS011;57132;51.972;4.450;2023-05-08T12:58:26;85.63;;;36.13;;
69835;SDS011;57132;51.972;4.450;2023-05-08T13:00:53;95.72;;;41.88;;
69835;SDS011;57132;51.972;4.450;2023-05-08T13:03:28;110.18;;;45.15;;
69835;SDS011;57132;51.972;4.450;2023-05-08T13:05:55;108.43;;;43.95;;
69835;SDS011;57132;51.972;4.450;2023-05-08T13:08:28;120.88;;;47.22;;
69835;SDS011;57132;51.972;4.450;2023-05-08T13:10:55;114.20;;;45.77;;
69835;SDS011;57132;51.972;4.450;2023-05-08T13:13:21;110.28;;;46.40;;
69835;SDS011;57132;51.972;4.450;2023-05-08T13:15:48;112.78;;;46.08;;
69835;SDS011;57132;51.972;4.450;2023-05-08T13:18:14;113.90;;;45.95;;
69835;SDS011;57132;51.972;4.450;2023-05-08T13:20:41;122.57;;;46.80;;
69835;SDS011;57132;51.972;4.450;2023-05-08T13:23:06;121.03;;;47.13;;
69835;SDS011;57132;51.972;4.450;2023-05-08T13:25:33;118.28;;;45.13;;
69835;SDS011;57132;51.972;4.450;2023-05-08T13:28:00;130.32;;;47.45;;
69835;SDS011;57132;51.972;4.450;2023-05-08T13:30:25;115.70;;;47.13;;
69835;SDS011;57132;51.972;4.450;2023-05-08T13:32:51;124.63;;;46.67;;
69835;SDS011;57132;51.972;4.450;2023-05-08T13:35:17;129.52;;;46.17;;
69835;SDS011;57132;51.972;4.450;2023-05-08T13:37:43;128.85;;;46.55;;
69835;SDS011;57132;51.972;4.450;2023-05-08T13:40:09;131.85;;;49.22;;
69835;SDS011;57132;51.972;4.450;2023-05-08T13:42:35;125.20;;;47.65;;
69835;SDS011;57132;51.972;4.450;2023-05-08T13:45:01;123.80;;;44.72;;
69835;SDS011;57132;51.972;4.450;2023-05-08T13:47:27;121.15;;;46.25;;
69835;SDS011;57132;51.972;4.450;2023-05-08T13:49:52;127.25;;;46.53;;
69835;SDS011;57132;51.972;4.450;2023-05-08T13:52:17;114.68;;;48.13;;
69835;SDS011;57132;51.972;4.450;2023-05-08T13:54:43;127.75;;;48.38;;
69835;SDS011;57132;51.972;4.450;2023-05-08T13:57:08;126.57;;;46.35;;
69835;SDS011;57132;51.972;4.450;2023-05-08T13:59:34;116.07;;;46.83;;
69835;SDS011;57132;51.972;4.450;2023-05-08T14:01:59;114.13;;;45.63;;
69835;SDS011;57132;51.972;4.450;2023-05-08T14:04:25;127.50;;;50.60;;
69835;SDS011;57132;51.972;4.450;2023-05-08T14:06:50;119.55;;;45.97;;
69835;SDS011;57132;51.972;4.450;2023-05-08T14:09:15;126.38;;;54.50;;
69835;SDS011;57132;51.972;4.450;2023-05-08T14:11:41;121.20;;;47.35;;
69835;SDS011;57132;51.972;4.450;2023-05-08T14:14:06;119.68;;;45.30;;
69835;SDS011;57132;51.972;4.450;2023-05-08T14:16:31;119.63;;;49.53;;
69835;SDS011;57132;51.972;4.450;2023-05-08T14:18:57;135.05;;;56.25;;
69835;SDS011;57132;51.972;4.450;2023-05-08T14:21:22;137.18;;;53.45;;
69835;SDS011;57132;51.972;4.450;2023-05-08T14:23:48;131.10;;;51.30;;
69835;SDS011;57132;51.972;4.450;2023-05-08T14:26:13;121.30;;;48.78;;
69835;SDS011;57132;51.972;4.450;2023-05-08T14:28:39;106.78;;;44.45;;
69835;SDS011;57132;51.972;4.450;2023-05-08T14:31:04;118.95;;;47.03;;
69835;SDS011;57132;51.972;4.450;2023-05-08T14:33:30;111.88;;;43.58;;
69835;SDS011;57132;51.972;4.450;2023-05-08T14:35:55;107.82;;;44.15;;
69835;SDS011;57132;51.972;4.450;2023-05-08T14:38:20;110.95;;;44.65;;
69835;SDS011;57132;51.972;4.450;2023-05-08T14:40:48;103.45;;;43.35;;
69835;SDS011;57132;51.972;4.450;2023-05-08T14:43:14;104.90;;;44.25;;
69835;SDS011;57132;51.972;4.450;2023-05-08T14:45:40;106.20;;;42.63;;
69835;SDS011;57132;51.972;4.450;2023-05-08T14:48:05;106.82;;;40.13;;
69835;SDS011;57132;51.972;4.450;2023-05-08T14:50:30;97.18;;;40.00;;
69835;SDS011;57132;51.972;4.450;2023-05-08T14:52:56;109.78;;;43.75;;
69835;SDS011;57132;51.972;4.450;2023-05-08T14:55:21;101.40;;;42.85;;
69835;SDS011;57132;51.972;4.450;2023-05-08T14:57:46;101.20;;;43.83;;
69835;SDS011;57132;51.972;4.450;2023-05-08T15:00:12;106.50;;;43.53;;
69835;SDS011;57132;51.972;4.450;2023-05-08T15:02:38;98.38;;;42.42;;
69835;SDS011;57132;51.972;4.450;2023-05-08T15:05:04;106.07;;;42.40;;
69835;SDS011;57132;51.972;4.450;2023-05-08T15:07:30;107.35;;;42.78;;
69835;SDS011;57132;51.972;4.450;2023-05-08T15:09:56;97.97;;;40.33;;